LGS2452 HESH-EBBR
Flight info
| Callsign | LGS2452 |
|---|---|
| Flight time | N/A |
| Altitude | 36000 |
| Route | SHM L677 CVO L617 NOZ L551 ANTAR DCT LAPSO DCT UVRIT DCT RIPLI UN137 SKP DCT KOGIS DCT BITLA DCT MAVAR DCT BOSNA DCT SIMBA DCT MAMOR DCT INBED DCT TEKTU DCT TESGA DCT UMUPU T880 BATTY |
| Aircraft | A320/M-SDE3FGHIRWY/LB1 |
Departure
| Time | 2026-05-04 20:54 |
|---|---|
| Airport | Sharm El Sheikh International Airport (HESH) |
Arrival
| Time | N/A |
|---|---|
| Airport | Brussels Airport (EBBR) |
| Time | Latitude | Longitude | Altitude | Speed | Heading |
|---|---|---|---|---|---|
| 2026-05-04 20:31 | 27.97957 | 34.38971 | 172 ft | 0 kts | 313° |
| 2026-05-04 20:32 | 27.97957 | 34.38972 | 172 ft | 0 kts | 313° |
| 2026-05-04 20:36 | 27.97956 | 34.38972 | 172 ft | 0 kts | 313° |
| 2026-05-04 20:46 | 27.97952 | 34.38977 | 172 ft | 4 kts | 309° |
| 2026-05-04 20:46 | 27.97938 | 34.39003 | 172 ft | 4 kts | 288° |
| 2026-05-04 20:47 | 27.97932 | 34.39033 | 172 ft | 4 kts | 269° |
| 2026-05-04 20:47 | 27.97935 | 34.39063 | 172 ft | 4 kts | 253° |
| 2026-05-04 20:47 | 27.97946 | 34.39090 | 172 ft | 4 kts | 228° |
| 2026-05-04 20:47 | 27.97950 | 34.39095 | 172 ft | 2 kts | 222° |
| 2026-05-04 20:50 | 27.97932 | 34.39076 | 172 ft | 11 kts | 222° |
| 2026-05-04 20:50 | 27.97836 | 34.38975 | 172 ft | 22 kts | 223° |
| 2026-05-04 20:50 | 27.97721 | 34.38852 | 172 ft | 23 kts | 218° |
| 2026-05-04 20:51 | 27.97600 | 34.38731 | 172 ft | 24 kts | 223° |
| 2026-05-04 20:51 | 27.97479 | 34.38603 | 172 ft | 24 kts | 223° |
| 2026-05-04 20:51 | 27.97354 | 34.38472 | 172 ft | 25 kts | 220° |
| 2026-05-04 20:51 | 27.97235 | 34.38352 | 172 ft | 22 kts | 223° |
| 2026-05-04 20:52 | 27.97119 | 34.38230 | 172 ft | 23 kts | 222° |
| 2026-05-04 20:52 | 27.96998 | 34.38120 | 173 ft | 16 kts | 190° |
| 2026-05-04 20:52 | 27.96933 | 34.38192 | 173 ft | 12 kts | 127° |
| 2026-05-04 20:52 | 27.96897 | 34.38272 | 173 ft | 11 kts | 93° |
| 2026-05-04 20:53 | 27.96938 | 34.38335 | 173 ft | 13 kts | 44° |
| 2026-05-04 20:53 | 27.97185 | 34.38595 | 174 ft | 88 kts | 43° |
| 2026-05-04 20:53 | 27.97810 | 34.39251 | 174 ft | 153 kts | 42° |
| 2026-05-04 20:53 | 27.98675 | 34.40206 | 485 ft | 179 kts | 44° |
| 2026-05-04 20:54 | 27.99587 | 34.41094 | 1474 ft | 171 kts | 31° |
| 2026-05-04 20:54 | 28.00645 | 34.41720 | 2231 ft | 178 kts | 23° |
| 2026-05-04 20:54 | 28.01854 | 34.42321 | 2710 ft | 202 kts | 22° |
| 2026-05-04 20:54 | 28.03199 | 34.42992 | 3263 ft | 223 kts | 22° |
| 2026-05-04 20:55 | 28.04671 | 34.43749 | 3914 ft | 237 kts | 23° |
| 2026-05-04 20:55 | 28.06175 | 34.44551 | 4619 ft | 242 kts | 24° |
| 2026-05-04 20:55 | 28.07704 | 34.45384 | 5288 ft | 246 kts | 22° |
| 2026-05-04 20:55 | 28.09370 | 34.45814 | 5938 ft | 248 kts | 356° |
| 2026-05-04 20:56 | 28.11033 | 34.45356 | 6593 ft | 248 kts | 328° |
| 2026-05-04 20:56 | 28.12314 | 34.44094 | 7279 ft | 244 kts | 302° |
| 2026-05-04 20:56 | 28.13235 | 34.42477 | 8009 ft | 244 kts | 300° |
| 2026-05-04 20:56 | 28.14145 | 34.40850 | 8769 ft | 245 kts | 300° |
| 2026-05-04 20:57 | 28.15057 | 34.39220 | 9557 ft | 245 kts | 299° |
| 2026-05-04 20:57 | 28.15967 | 34.37596 | 10320 ft | 244 kts | 299° |
| 2026-05-04 20:57 | 28.16881 | 34.35969 | 10987 ft | 245 kts | 298° |
| 2026-05-04 20:57 | 28.17802 | 34.34333 | 11648 ft | 247 kts | 298° |
| 2026-05-04 20:58 | 28.18727 | 34.32685 | 12277 ft | 249 kts | 298° |
| 2026-05-04 20:58 | 28.19660 | 34.31024 | 12933 ft | 251 kts | 298° |
| 2026-05-04 20:58 | 28.20599 | 34.29353 | 13580 ft | 252 kts | 298° |
| 2026-05-04 20:58 | 28.21556 | 34.27646 | 13829 ft | 270 kts | 297° |
| 2026-05-04 20:59 | 28.22597 | 34.25779 | 13946 ft | 291 kts | 298° |
| 2026-05-04 20:59 | 28.23716 | 34.23772 | 14084 ft | 311 kts | 298° |
| 2026-05-04 20:59 | 28.24909 | 34.21641 | 14200 ft | 329 kts | 298° |
| 2026-05-04 20:59 | 28.26169 | 34.19395 | 14328 ft | 347 kts | 298° |
| 2026-05-04 21:00 | 28.27486 | 34.17047 | 14634 ft | 356 kts | 298° |
| 2026-05-04 21:00 | 28.28826 | 34.14664 | 15138 ft | 360 kts | 298° |
| 2026-05-04 21:00 | 28.30176 | 34.12264 | 15695 ft | 362 kts | 298° |
| 2026-05-04 21:00 | 28.31534 | 34.09850 | 16252 ft | 364 kts | 298° |
| 2026-05-04 21:01 | 28.32896 | 34.07420 | 16826 ft | 365 kts | 298° |
| 2026-05-04 21:01 | 28.34259 | 34.04982 | 17361 ft | 367 kts | 298° |
| 2026-05-04 21:01 | 28.35628 | 34.02531 | 17928 ft | 368 kts | 297° |
| 2026-05-04 21:01 | 28.36996 | 34.00077 | 18452 ft | 369 kts | 297° |
| 2026-05-04 21:02 | 28.38372 | 33.97602 | 18911 ft | 371 kts | 297° |
| 2026-05-04 21:02 | 28.39753 | 33.95120 | 19360 ft | 373 kts | 297° |
| 2026-05-04 21:02 | 28.41143 | 33.92623 | 19791 ft | 375 kts | 297° |
| 2026-05-04 21:02 | 28.42539 | 33.90118 | 20236 ft | 376 kts | 297° |
| 2026-05-04 21:03 | 28.43944 | 33.87594 | 20673 ft | 379 kts | 297° |
| 2026-05-04 21:03 | 28.45354 | 33.85064 | 21083 ft | 380 kts | 297° |
| 2026-05-04 21:03 | 28.46769 | 33.82518 | 21459 ft | 382 kts | 297° |
| 2026-05-04 21:03 | 28.48189 | 33.79960 | 21885 ft | 384 kts | 297° |
| 2026-05-04 21:04 | 28.49616 | 33.77389 | 22315 ft | 386 kts | 297° |
| 2026-05-04 21:04 | 28.51053 | 33.74802 | 22702 ft | 388 kts | 297° |
| 2026-05-04 21:04 | 28.52491 | 33.72214 | 23142 ft | 388 kts | 297° |
| 2026-05-04 21:04 | 28.53936 | 33.69608 | 23509 ft | 390 kts | 297° |
| 2026-05-04 21:05 | 28.55385 | 33.66992 | 23840 ft | 392 kts | 297° |
| 2026-05-04 21:05 | 28.56840 | 33.64362 | 24164 ft | 394 kts | 297° |
| 2026-05-04 21:05 | 28.58301 | 33.61721 | 24521 ft | 395 kts | 297° |
| 2026-05-04 21:05 | 28.59765 | 33.59067 | 24874 ft | 397 kts | 297° |
| 2026-05-04 21:06 | 28.61238 | 33.56398 | 25218 ft | 399 kts | 297° |
| 2026-05-04 21:06 | 28.62703 | 33.53757 | 25546 ft | 401 kts | 298° |
| 2026-05-04 21:06 | 28.64413 | 33.51220 | 25842 ft | 406 kts | 303° |
| 2026-05-04 21:06 | 28.66192 | 33.48718 | 26162 ft | 407 kts | 303° |
| 2026-05-04 21:07 | 28.67982 | 33.46205 | 26441 ft | 409 kts | 303° |
| 2026-05-04 21:07 | 28.69774 | 33.43685 | 26728 ft | 410 kts | 303° |
| 2026-05-04 21:07 | 28.71569 | 33.41156 | 26989 ft | 411 kts | 303° |
| 2026-05-04 21:07 | 28.73366 | 33.38617 | 27270 ft | 412 kts | 303° |
| 2026-05-04 21:08 | 28.75170 | 33.36064 | 27544 ft | 413 kts | 302° |
| 2026-05-04 21:08 | 28.76974 | 33.33507 | 27817 ft | 414 kts | 302° |
| 2026-05-04 21:08 | 28.78779 | 33.30945 | 28080 ft | 415 kts | 302° |
| 2026-05-04 21:08 | 28.80593 | 33.28371 | 28408 ft | 415 kts | 302° |
| 2026-05-04 21:09 | 28.82397 | 33.25813 | 28812 ft | 413 kts | 302° |
| 2026-05-04 21:09 | 28.84199 | 33.23263 | 29179 ft | 412 kts | 302° |
| 2026-05-04 21:09 | 28.85991 | 33.20723 | 29574 ft | 410 kts | 302° |
| 2026-05-04 21:09 | 28.87774 | 33.18194 | 29980 ft | 408 kts | 302° |
| 2026-05-04 21:10 | 28.89553 | 33.15677 | 30324 ft | 407 kts | 302° |
| 2026-05-04 21:10 | 28.91326 | 33.13166 | 30622 ft | 405 kts | 302° |
| 2026-05-04 21:10 | 28.93086 | 33.10663 | 30915 ft | 404 kts | 302° |
| 2026-05-04 21:10 | 28.94845 | 33.08157 | 31199 ft | 404 kts | 302° |
| 2026-05-04 21:11 | 28.96596 | 33.05654 | 31482 ft | 403 kts | 301° |
| 2026-05-04 21:11 | 28.98341 | 33.03160 | 31767 ft | 402 kts | 301° |
| 2026-05-04 21:11 | 29.00084 | 33.00669 | 32045 ft | 401 kts | 301° |
| 2026-05-04 21:11 | 29.01807 | 32.98213 | 32320 ft | 401 kts | 301° |
| 2026-05-04 21:12 | 29.03573 | 32.95696 | 32599 ft | 400 kts | 301° |
| 2026-05-04 21:12 | 29.05284 | 32.93253 | 32864 ft | 399 kts | 301° |
| 2026-05-04 21:12 | 29.07043 | 32.90737 | 33131 ft | 399 kts | 301° |
| 2026-05-04 21:12 | 29.08748 | 32.88301 | 33396 ft | 398 kts | 301° |
| 2026-05-04 21:13 | 29.10482 | 32.85828 | 33665 ft | 398 kts | 301° |
| 2026-05-04 21:13 | 29.12205 | 32.83363 | 33927 ft | 397 kts | 301° |
| 2026-05-04 21:13 | 29.13927 | 32.80894 | 34172 ft | 397 kts | 301° |
| 2026-05-04 21:13 | 29.15645 | 32.78425 | 34397 ft | 396 kts | 301° |
| 2026-05-04 21:14 | 29.17361 | 32.75958 | 34613 ft | 396 kts | 301° |
| 2026-05-04 21:14 | 29.19074 | 32.73496 | 34837 ft | 395 kts | 301° |
| 2026-05-04 21:14 | 29.20786 | 32.71040 | 35054 ft | 395 kts | 301° |
| 2026-05-04 21:14 | 29.22496 | 32.68583 | 35243 ft | 395 kts | 300° |
| 2026-05-04 21:15 | 29.24208 | 32.66120 | 35440 ft | 394 kts | 300° |
| 2026-05-04 21:15 | 29.25913 | 32.63664 | 35623 ft | 394 kts | 300° |
| 2026-05-04 21:15 | 29.27618 | 32.61207 | 35806 ft | 394 kts | 300° |
| 2026-05-04 21:15 | 29.29323 | 32.58753 | 35992 ft | 393 kts | 300° |
| 2026-05-04 21:16 | 29.31022 | 32.56287 | 36107 ft | 395 kts | 300° |
| 2026-05-04 21:16 | 29.32702 | 32.53834 | 36111 ft | 398 kts | 300° |
| 2026-05-04 21:16 | 29.36147 | 32.48788 | 36105 ft | 405 kts | 300° |
| 2026-05-04 21:17 | 29.39648 | 32.43680 | 36113 ft | 408 kts | 300° |
| 2026-05-04 21:17 | 29.43160 | 32.38559 | 36120 ft | 408 kts | 300° |
| 2026-05-04 21:18 | 29.46668 | 32.33443 | 36122 ft | 408 kts | 300° |
| 2026-05-04 21:18 | 29.50165 | 32.28322 | 36131 ft | 407 kts | 300° |
| 2026-05-04 21:19 | 29.53656 | 32.23201 | 36135 ft | 407 kts | 300° |
| 2026-05-04 21:19 | 29.57142 | 32.18086 | 36139 ft | 407 kts | 300° |
| 2026-05-04 21:20 | 29.60628 | 32.12957 | 36145 ft | 407 kts | 300° |
| 2026-05-04 21:20 | 29.64116 | 32.07825 | 36147 ft | 407 kts | 300° |
| 2026-05-04 21:21 | 29.67018 | 32.03557 | 36151 ft | 407 kts | 300° |
| 2026-05-04 21:21 | 29.71070 | 31.97583 | 36152 ft | 408 kts | 300° |
| 2026-05-04 21:22 | 29.74554 | 31.92438 | 36152 ft | 408 kts | 300° |
| 2026-05-04 21:22 | 29.78031 | 31.87288 | 36152 ft | 407 kts | 300° |
| 2026-05-04 21:23 | 29.80900 | 31.82945 | 36147 ft | 406 kts | 299° |
| 2026-05-04 21:23 | 29.84240 | 31.77701 | 36145 ft | 406 kts | 299° |
| 2026-05-04 21:24 | 29.87550 | 31.72487 | 36143 ft | 406 kts | 299° |
| 2026-05-04 21:24 | 29.90894 | 31.67248 | 36147 ft | 406 kts | 299° |
| 2026-05-04 21:25 | 29.94263 | 31.62012 | 36148 ft | 407 kts | 300° |
| 2026-05-04 21:25 | 29.97654 | 31.56784 | 36149 ft | 407 kts | 300° |
| 2026-05-04 21:26 | 30.01044 | 31.51553 | 36155 ft | 407 kts | 300° |
| 2026-05-04 21:26 | 30.04430 | 31.46304 | 36161 ft | 408 kts | 300° |
| 2026-05-04 21:27 | 30.07805 | 31.41058 | 36161 ft | 407 kts | 300° |
| 2026-05-04 21:27 | 30.11686 | 31.36195 | 36166 ft | 417 kts | 309° |
| 2026-05-04 21:28 | 30.15938 | 31.31652 | 36164 ft | 416 kts | 309° |
| 2026-05-04 21:28 | 30.20187 | 31.27104 | 36145 ft | 416 kts | 309° |
| 2026-05-04 21:29 | 30.24419 | 31.22553 | 36151 ft | 416 kts | 309° |
| 2026-05-04 21:29 | 30.28647 | 31.17995 | 36153 ft | 415 kts | 309° |
| 2026-05-04 21:30 | 30.32874 | 31.13435 | 36153 ft | 415 kts | 309° |
| 2026-05-04 21:30 | 30.37094 | 31.08874 | 36152 ft | 415 kts | 309° |
| 2026-05-04 21:31 | 30.43421 | 31.02038 | 36143 ft | 415 kts | 309° |
| 2026-05-04 21:32 | 30.47640 | 30.97484 | 36145 ft | 414 kts | 309° |
| 2026-05-04 21:32 | 30.51818 | 30.92944 | 36147 ft | 414 kts | 309° |
| 2026-05-04 21:33 | 30.56023 | 30.88374 | 36143 ft | 414 kts | 309° |
| 2026-05-04 21:33 | 30.60235 | 30.83801 | 36150 ft | 415 kts | 310° |
| 2026-05-04 21:34 | 30.64452 | 30.79221 | 36148 ft | 415 kts | 310° |
| 2026-05-04 21:34 | 30.68664 | 30.74631 | 36145 ft | 415 kts | 310° |
| 2026-05-04 21:35 | 30.72877 | 30.70030 | 36143 ft | 416 kts | 310° |
| 2026-05-04 21:35 | 30.77093 | 30.65418 | 36140 ft | 416 kts | 310° |
| 2026-05-04 21:36 | 30.81317 | 30.60806 | 36135 ft | 417 kts | 310° |
| 2026-05-04 21:36 | 30.85542 | 30.56183 | 36132 ft | 417 kts | 310° |
| 2026-05-04 21:37 | 30.89770 | 30.51554 | 36132 ft | 417 kts | 310° |
| 2026-05-04 21:37 | 30.93995 | 30.46913 | 36133 ft | 418 kts | 310° |
| 2026-05-04 21:38 | 30.98222 | 30.42267 | 36122 ft | 418 kts | 310° |
| 2026-05-04 21:38 | 31.02452 | 30.37611 | 36125 ft | 418 kts | 310° |
| 2026-05-04 21:39 | 31.06643 | 30.32964 | 36126 ft | 417 kts | 308° |
| 2026-05-04 21:39 | 31.09834 | 30.27488 | 36132 ft | 405 kts | 290° |
| 2026-05-04 21:40 | 31.11615 | 30.21290 | 36128 ft | 403 kts | 285° |
| 2026-05-04 21:40 | 31.13316 | 30.15050 | 36132 ft | 404 kts | 285° |
| 2026-05-04 21:41 | 31.15028 | 30.08805 | 36136 ft | 404 kts | 285° |
| 2026-05-04 21:41 | 31.16729 | 30.02550 | 36137 ft | 405 kts | 285° |
| 2026-05-04 21:42 | 31.19094 | 29.96580 | 36141 ft | 412 kts | 303° |
| 2026-05-04 21:42 | 31.21048 | 29.94102 | 36143 ft | 420 kts | 314° |
| 2026-05-04 21:42 | 31.23463 | 29.92132 | 36140 ft | 429 kts | 324° |
| 2026-05-04 21:43 | 31.28751 | 29.88843 | 36140 ft | 431 kts | 325° |
| 2026-05-04 21:43 | 31.34048 | 29.85541 | 36140 ft | 431 kts | 325° |
| 2026-05-04 21:44 | 31.39335 | 29.82228 | 36146 ft | 431 kts | 325° |
| 2026-05-04 21:44 | 31.44616 | 29.78915 | 36148 ft | 430 kts | 325° |
| 2026-05-04 21:45 | 31.49892 | 29.75603 | 36151 ft | 430 kts | 325° |
| 2026-05-04 21:45 | 31.55159 | 29.72292 | 36145 ft | 429 kts | 325° |
| 2026-05-04 21:46 | 31.60420 | 29.68978 | 36147 ft | 429 kts | 325° |
| 2026-05-04 21:46 | 31.65645 | 29.65686 | 36148 ft | 429 kts | 325° |
| 2026-05-04 21:47 | 31.70902 | 29.62371 | 36146 ft | 429 kts | 325° |
| 2026-05-04 21:47 | 31.76154 | 29.59055 | 36149 ft | 428 kts | 325° |
| 2026-05-04 21:48 | 31.81397 | 29.55741 | 36149 ft | 427 kts | 325° |
| 2026-05-04 21:48 | 31.86632 | 29.52427 | 36149 ft | 427 kts | 325° |
| 2026-05-04 21:49 | 31.91855 | 29.49113 | 36151 ft | 427 kts | 325° |
| 2026-05-04 21:49 | 31.97071 | 29.45793 | 36148 ft | 426 kts | 325° |
| 2026-05-04 21:50 | 32.02289 | 29.42475 | 36149 ft | 426 kts | 325° |
| 2026-05-04 21:50 | 32.07499 | 29.39164 | 36145 ft | 425 kts | 325° |
| 2026-05-04 21:51 | 32.12671 | 29.35873 | 36145 ft | 425 kts | 325° |
| 2026-05-04 21:51 | 32.17863 | 29.32554 | 36145 ft | 424 kts | 325° |
| 2026-05-04 21:52 | 32.23056 | 29.29236 | 36145 ft | 424 kts | 325° |
| 2026-05-04 21:52 | 32.28242 | 29.25912 | 36141 ft | 423 kts | 325° |
| 2026-05-04 21:53 | 32.33411 | 29.22587 | 36142 ft | 423 kts | 325° |
| 2026-05-04 21:53 | 32.38579 | 29.19269 | 36143 ft | 422 kts | 325° |
| 2026-05-04 21:54 | 32.43740 | 29.15948 | 36137 ft | 422 kts | 325° |
| 2026-05-04 21:54 | 32.48897 | 29.12630 | 36136 ft | 422 kts | 325° |
| 2026-05-04 21:55 | 32.54051 | 29.09307 | 36136 ft | 422 kts | 325° |
| 2026-05-04 21:55 | 32.59202 | 29.05979 | 36133 ft | 421 kts | 325° |
| 2026-05-04 21:56 | 32.64351 | 29.02655 | 36136 ft | 421 kts | 325° |
| 2026-05-04 21:56 | 32.69499 | 28.99324 | 36137 ft | 421 kts | 325° |
| 2026-05-04 21:57 | 32.74644 | 28.95981 | 36138 ft | 422 kts | 325° |
| 2026-05-04 21:57 | 32.79754 | 28.92659 | 36134 ft | 421 kts | 325° |
| 2026-05-04 21:58 | 32.84900 | 28.89317 | 36137 ft | 421 kts | 326° |
| 2026-05-04 21:58 | 32.90033 | 28.85973 | 36135 ft | 421 kts | 326° |
| 2026-05-04 21:59 | 32.95172 | 28.82622 | 36134 ft | 421 kts | 326° |
| 2026-05-04 21:59 | 33.00317 | 28.79272 | 36138 ft | 421 kts | 326° |
| 2026-05-04 22:00 | 33.05459 | 28.75925 | 36140 ft | 421 kts | 326° |
| 2026-05-04 22:00 | 33.10594 | 28.72558 | 36138 ft | 421 kts | 326° |
| 2026-05-04 22:01 | 33.15720 | 28.69188 | 36141 ft | 421 kts | 326° |
| 2026-05-04 22:01 | 33.20852 | 28.65816 | 36137 ft | 420 kts | 326° |
| 2026-05-04 22:02 | 33.25935 | 28.62470 | 36129 ft | 420 kts | 326° |
| 2026-05-04 22:02 | 33.31053 | 28.59110 | 36130 ft | 419 kts | 326° |
| 2026-05-04 22:03 | 33.36163 | 28.55747 | 36126 ft | 419 kts | 326° |
| 2026-05-04 22:03 | 33.41270 | 28.52379 | 36121 ft | 419 kts | 326° |
| 2026-05-04 22:04 | 33.46381 | 28.49002 | 36123 ft | 419 kts | 326° |
| 2026-05-04 22:04 | 33.51488 | 28.45621 | 36135 ft | 419 kts | 326° |
| 2026-05-04 22:05 | 33.56587 | 28.42238 | 36133 ft | 419 kts | 326° |
| 2026-05-04 22:05 | 33.61686 | 28.38859 | 36132 ft | 418 kts | 326° |
| 2026-05-04 22:06 | 33.66776 | 28.35475 | 36129 ft | 418 kts | 326° |
| 2026-05-04 22:06 | 33.71868 | 28.32089 | 36130 ft | 418 kts | 327° |
| 2026-05-04 22:07 | 33.76957 | 28.28700 | 36126 ft | 418 kts | 327° |
| 2026-05-04 22:07 | 33.82014 | 28.25245 | 36125 ft | 417 kts | 324° |
| 2026-05-04 22:08 | 33.86882 | 28.21469 | 36120 ft | 416 kts | 322° |
| 2026-05-04 22:08 | 33.91683 | 28.17575 | 36120 ft | 416 kts | 322° |
| 2026-05-04 22:09 | 33.96516 | 28.13728 | 36117 ft | 417 kts | 323° |
| 2026-05-04 22:09 | 34.01349 | 28.09949 | 36122 ft | 417 kts | 323° |
| 2026-05-04 22:10 | 34.06215 | 28.06145 | 36117 ft | 417 kts | 323° |
| 2026-05-04 22:10 | 34.11081 | 28.02323 | 36119 ft | 417 kts | 323° |
| 2026-05-04 22:11 | 34.15942 | 27.98493 | 36118 ft | 418 kts | 323° |
| 2026-05-04 22:11 | 34.20805 | 27.94657 | 36111 ft | 418 kts | 323° |
| 2026-05-04 22:12 | 34.25669 | 27.90812 | 36112 ft | 418 kts | 323° |
| 2026-05-04 22:12 | 34.30534 | 27.86962 | 36119 ft | 418 kts | 323° |
| 2026-05-04 22:13 | 34.35398 | 27.83100 | 36106 ft | 419 kts | 323° |
| 2026-05-04 22:13 | 34.40278 | 27.79240 | 36111 ft | 419 kts | 324° |
| 2026-05-04 22:14 | 34.44334 | 27.76027 | 36112 ft | 419 kts | 323° |
| 2026-05-04 22:14 | 34.49203 | 27.72146 | 36113 ft | 419 kts | 323° |
| 2026-05-04 22:15 | 34.54081 | 27.68253 | 36117 ft | 419 kts | 324° |
| 2026-05-04 22:15 | 34.58957 | 27.64367 | 36116 ft | 420 kts | 324° |
| 2026-05-04 22:16 | 34.63834 | 27.60473 | 36114 ft | 420 kts | 324° |
| 2026-05-04 22:16 | 34.68714 | 27.56573 | 36111 ft | 420 kts | 324° |
| 2026-05-04 22:17 | 34.73597 | 27.52654 | 36112 ft | 421 kts | 324° |
| 2026-05-04 22:17 | 34.78494 | 27.48734 | 36108 ft | 421 kts | 324° |
| 2026-05-04 22:18 | 34.83383 | 27.44800 | 36109 ft | 422 kts | 324° |
| 2026-05-04 22:18 | 34.88274 | 27.40854 | 36101 ft | 422 kts | 324° |
| 2026-05-04 22:19 | 34.93180 | 27.36913 | 36104 ft | 422 kts | 324° |
| 2026-05-04 22:19 | 34.98084 | 27.32963 | 36102 ft | 423 kts | 324° |
| 2026-05-04 22:20 | 35.02995 | 27.28994 | 36107 ft | 424 kts | 324° |